createdAt,value
2023-03-28T00:01:55.801Z,1.30
2023-03-28T00:04:57.981Z,1.73
2023-03-28T00:08:00.213Z,1.40
2023-03-28T00:11:28.682Z,1.70
2023-03-28T00:14:30.896Z,2.58
2023-03-28T00:17:33.614Z,1.35
2023-03-28T00:20:40.329Z,1.87
2023-03-28T00:23:42.766Z,1.83
2023-03-28T00:26:45.838Z,1.67
2023-03-28T00:29:48.043Z,1.87
2023-03-28T00:32:51.055Z,1.42
2023-03-28T00:35:53.385Z,1.55
2023-03-28T00:38:57.936Z,1.75
2023-03-28T00:42:01.738Z,1.60
2023-03-28T00:45:04.232Z,1.30
2023-03-28T00:48:14.313Z,1.45
2023-03-28T00:51:20.964Z,1.40
2023-03-28T00:54:24.296Z,1.65
2023-03-28T00:57:28.071Z,2.08
2023-03-28T01:00:31.007Z,1.83
2023-03-28T01:03:35.387Z,1.95
2023-03-28T01:06:42.212Z,1.70
2023-03-28T01:09:44.856Z,1.55
2023-03-28T01:12:47.984Z,2.05
2023-03-28T01:15:51.479Z,1.48
2023-03-28T01:18:53.694Z,1.55
2023-03-28T01:22:40.499Z,1.37
2023-03-28T01:25:58.806Z,1.37
2023-03-28T01:29:19.102Z,1.70
2023-03-28T01:32:39.901Z,1.35
2023-03-28T01:36:09.374Z,1.40
2023-03-28T01:39:12.823Z,1.48
2023-03-28T01:42:31.471Z,1.37
2023-03-28T01:45:39.775Z,1.85
2023-03-28T01:48:47.559Z,1.23
2023-03-28T01:51:52.056Z,1.58
2023-03-28T01:55:11.259Z,1.35
2023-03-28T01:58:18.609Z,1.35
2023-03-28T02:01:24.861Z,1.27
2023-03-28T02:04:29.202Z,1.48
2023-03-28T02:07:33.406Z,1.45
2023-03-28T02:10:37.577Z,1.55
2023-03-28T02:13:46.553Z,1.23
2023-03-28T02:16:51.435Z,1.90
2023-03-28T02:19:58.643Z,1.52
2023-03-28T02:23:03.805Z,1.60
2023-03-28T02:26:06.599Z,1.33
2023-03-28T02:29:09.250Z,1.40
2023-03-28T02:32:11.621Z,1.20
2023-03-28T02:35:13.828Z,1.92
2023-03-28T02:38:25.873Z,1.42
2023-03-28T02:41:57.397Z,1.58
2023-03-28T02:45:41.896Z,1.42
2023-03-28T02:48:59.921Z,1.73
2023-03-28T02:52:14.732Z,1.58
2023-03-28T02:55:35.846Z,1.23
2023-03-28T02:58:47.475Z,1.80
2023-03-28T03:01:50.556Z,1.42
2023-03-28T03:04:57.589Z,1.85
2023-03-28T03:07:59.819Z,2.17
2023-03-28T03:11:02.026Z,3.05
2023-03-28T03:14:04.324Z,2.33
2023-03-28T03:17:06.687Z,2.35
2023-03-28T03:20:09.421Z,3.60
2023-03-28T03:23:14.506Z,2.33
2023-03-28T03:26:17.216Z,2.45
2023-03-28T03:29:19.435Z,1.98
2023-03-28T03:32:21.712Z,2.10
2023-03-28T03:35:24.043Z,2.05
2023-03-28T03:38:26.548Z,1.98
2023-03-28T03:41:28.840Z,2.10
2023-03-28T03:44:31.140Z,1.85
2023-03-28T03:47:33.600Z,1.75
2023-03-28T03:50:36.214Z,1.90
2023-03-28T03:53:40.084Z,1.65
2023-03-28T03:56:42.412Z,1.60
2023-03-28T03:59:44.624Z,1.65
2023-03-28T04:02:47.483Z,1.85
2023-03-28T04:05:49.678Z,2.20
2023-03-28T04:08:52.262Z,2.50
2023-03-28T04:11:55.300Z,2.72
2023-03-28T04:14:57.580Z,2.55
2023-03-28T04:18:00.850Z,2.45
2023-03-28T04:21:04.937Z,2.22
2023-03-28T04:24:07.331Z,2.40
2023-03-28T04:27:09.841Z,2.10
2023-03-28T04:30:12.417Z,2.03
2023-03-28T04:33:14.682Z,2.25
2023-03-28T04:36:17.005Z,1.90
2023-03-28T04:39:21.948Z,2.58
2023-03-28T04:42:24.140Z,2.90
2023-03-28T04:45:26.792Z,2.78
2023-03-28T04:48:29.279Z,2.87
2023-03-28T04:51:31.477Z,2.72
2023-03-28T04:54:33.681Z,3.10
2023-03-28T04:57:38.253Z,2.55
2023-03-28T05:00:40.490Z,2.17
2023-03-28T05:03:42.756Z,2.08
2023-03-28T05:06:49.373Z,2.60
2023-03-28T05:09:51.634Z,2.67
2023-03-28T05:12:53.848Z,2.08
2023-03-28T05:15:56.098Z,1.90
2023-03-28T05:18:58.923Z,2.67
2023-03-28T05:22:01.564Z,2.40
2023-03-28T05:25:04.964Z,1.90
2023-03-28T05:28:07.354Z,1.90
2023-03-28T05:31:10.042Z,2.60
2023-03-28T05:34:12.184Z,2.03
2023-03-28T05:37:14.382Z,2.47
2023-03-28T05:40:16.949Z,2.65
2023-03-28T05:43:19.236Z,1.67
2023-03-28T05:46:21.649Z,2.10
2023-03-28T05:49:23.863Z,2.20
2023-03-28T05:52:26.328Z,2.97
2023-03-28T05:55:28.562Z,1.83
2023-03-28T05:58:31.718Z,2.47
2023-03-28T06:01:34.968Z,1.67
2023-03-28T06:04:37.533Z,16.08
2023-03-28T06:07:42.998Z,9.95
2023-03-28T06:10:45.530Z,12.32
2023-03-28T06:13:47.765Z,8.07
2023-03-28T06:16:50.088Z,2.58
2023-03-28T06:19:52.463Z,2.33
2023-03-28T06:22:54.825Z,1.70
2023-03-28T06:25:56.992Z,2.17
2023-03-28T06:28:59.137Z,2.10
2023-03-28T06:32:01.319Z,2.40
2023-03-28T06:35:03.655Z,1.98
2023-03-28T06:38:05.992Z,2.30
2023-03-28T06:41:08.264Z,1.90
2023-03-28T06:44:10.993Z,2.22
2023-03-28T06:47:13.206Z,2.20
2023-03-28T06:50:15.547Z,1.85
2023-03-28T06:53:18.162Z,2.42
2023-03-28T06:56:20.548Z,1.60
2023-03-28T06:59:22.852Z,2.25
2023-03-28T07:02:25.165Z,2.00
2023-03-28T07:05:27.628Z,2.28
2023-03-28T07:08:29.872Z,2.42
2023-03-28T07:11:32.048Z,1.83
2023-03-28T07:14:34.726Z,3.10
2023-03-28T07:17:37.177Z,2.33
2023-03-28T07:20:40.787Z,1.67
2023-03-28T07:23:44.606Z,1.90
2023-03-28T07:26:46.956Z,1.85
2023-03-28T07:29:49.174Z,2.40
2023-03-28T07:32:58.759Z,2.35
2023-03-28T07:36:12.509Z,1.80
2023-03-28T07:39:14.776Z,2.45
2023-03-28T07:42:17.003Z,2.40
2023-03-28T07:45:19.182Z,1.95
2023-03-28T07:48:21.423Z,2.35
2023-03-28T07:51:23.706Z,2.70
2023-03-28T07:54:27.472Z,1.87
2023-03-28T07:57:29.656Z,2.05
2023-03-28T08:00:32.157Z,2.20
2023-03-28T08:03:35.015Z,2.15
2023-03-28T08:06:40.872Z,1.80
2023-03-28T08:09:43.077Z,2.15
2023-03-28T08:12:45.302Z,1.87
2023-03-28T08:15:53.692Z,1.75
2023-03-28T08:19:09.861Z,1.55
2023-03-28T08:22:12.909Z,1.85
2023-03-28T08:25:15.649Z,1.90
2023-03-28T08:28:17.831Z,1.40
2023-03-28T08:31:23.433Z,1.80
2023-03-28T08:34:25.914Z,1.83
2023-03-28T08:37:29.294Z,2.28
2023-03-28T08:40:31.904Z,1.62
2023-03-28T08:43:53.466Z,1.60
2023-03-28T08:47:03.509Z,1.50
2023-03-28T08:50:44.654Z,1.50
2023-03-28T08:53:52.825Z,1.95
2023-03-28T08:57:01.197Z,1.62
2023-03-28T09:00:22.596Z,1.33
2023-03-28T09:03:25.377Z,1.52
2023-03-28T09:06:44.679Z,2.05
2023-03-28T09:10:12.140Z,1.60
2023-03-28T09:13:41.510Z,1.67
2023-03-28T09:17:08.289Z,1.45
2023-03-28T09:20:25.826Z,1.33
2023-03-28T09:24:02.610Z,1.50
2023-03-28T09:27:25.303Z,1.40
2023-03-28T09:30:32.484Z,1.37
2023-03-28T09:33:37.253Z,1.20
2023-03-28T09:36:49.343Z,1.40
2023-03-28T09:39:53.831Z,1.10
2023-03-28T09:43:12.089Z,1.48
2023-03-28T09:46:32.881Z,1.40
2023-03-28T09:49:35.099Z,1.10
2023-03-28T09:52:37.311Z,1.08
2023-03-28T09:55:39.545Z,1.30
2023-03-28T09:58:53.746Z,1.30
2023-03-28T10:01:56.946Z,1.25
2023-03-28T10:04:59.389Z,1.25
2023-03-28T10:08:40.202Z,1.00
2023-03-28T10:11:57.465Z,1.40
2023-03-28T10:15:00.206Z,1.20
2023-03-28T10:18:04.424Z,1.20
2023-03-28T10:21:14.356Z,1.33
2023-03-28T10:24:18.850Z,1.10
2023-03-28T10:27:28.486Z,1.10
2023-03-28T10:30:32.573Z,1.20
2023-03-28T10:33:37.247Z,1.20
2023-03-28T10:36:43.714Z,1.42
2023-03-28T10:39:59.260Z,1.10
2023-03-28T10:43:01.545Z,1.37
2023-03-28T10:46:08.664Z,1.30
2023-03-28T10:49:15.884Z,1.17
2023-03-28T10:52:38.961Z,1.60
2023-03-28T10:55:50.505Z,2.30
2023-03-28T11:02:31.231Z,1.55
2023-03-28T11:05:45.185Z,1.12
2023-03-28T11:08:56.919Z,1.08
2023-03-28T11:12:04.702Z,1.20
2023-03-28T11:15:36.398Z,1.30
2023-03-28T11:21:52.569Z,1.08
2023-03-28T11:24:57.731Z,0.93
2023-03-28T11:28:15.680Z,0.88
2023-03-28T11:31:42.437Z,1.00
2023-03-28T11:35:22.210Z,1.10
2023-03-28T11:38:28.061Z,0.90
2023-03-28T11:41:31.988Z,1.33
2023-03-28T11:44:39.292Z,0.90
2023-03-28T11:47:48.459Z,1.30
2023-03-28T11:50:56.369Z,1.02
2023-03-28T11:54:05.546Z,0.80
2023-03-28T11:57:49.038Z,0.80
2023-03-28T12:01:11.267Z,1.10
2023-03-28T12:04:42.858Z,1.02
2023-03-28T12:07:57.210Z,0.98
2023-03-28T12:11:06.306Z,1.27
2023-03-28T12:14:26.653Z,1.52
2023-03-28T12:17:32.630Z,1.25
2023-03-28T12:21:05.205Z,1.40
2023-03-28T12:24:13.910Z,1.00
2023-03-28T12:27:22.337Z,1.02
2023-03-28T12:30:35.763Z,1.05
2023-03-28T12:34:03.645Z,1.00
2023-03-28T12:37:21.967Z,1.08
2023-03-28T12:41:00.321Z,1.12
2023-03-28T12:44:14.136Z,1.15
2023-03-28T12:47:23.156Z,1.30
2023-03-28T12:50:33.428Z,1.15
2023-03-28T12:53:43.280Z,1.50
2023-03-28T12:56:47.322Z,1.23
2023-03-28T13:00:18.148Z,1.05
2023-03-28T13:03:51.552Z,1.00
2023-03-28T13:07:21.651Z,1.10
2023-03-28T13:10:41.219Z,2.00
2023-03-28T13:14:18.612Z,1.48
2023-03-28T13:17:33.004Z,1.10
2023-03-28T13:20:45.608Z,1.23
2023-03-28T13:23:48.224Z,1.00
2023-03-28T13:26:59.934Z,0.85
2023-03-28T13:30:08.449Z,1.08
2023-03-28T13:33:16.613Z,1.20
2023-03-28T13:36:22.769Z,0.90
2023-03-28T13:39:25.750Z,1.05
2023-03-28T13:42:33.204Z,1.40
2023-03-28T13:45:36.923Z,1.02
2023-03-28T13:48:51.541Z,1.00
2023-03-28T13:52:04.979Z,1.10
2023-03-28T13:55:23.009Z,1.00
2023-03-28T13:58:25.263Z,1.25
2023-03-28T14:01:34.696Z,1.45
2023-03-28T14:04:36.874Z,1.42
2023-03-28T14:07:39.178Z,1.30
2023-03-28T14:10:45.999Z,1.20
2023-03-28T14:13:49.307Z,1.35
2023-03-28T14:16:52.151Z,1.52
2023-03-28T14:19:56.928Z,1.02
2023-03-28T14:23:01.452Z,0.98
2023-03-28T14:26:12.507Z,1.05
2023-03-28T14:29:20.029Z,1.20
2023-03-28T14:32:27.437Z,1.30
2023-03-28T14:35:32.014Z,1.00
2023-03-28T14:38:36.496Z,1.12
2023-03-28T14:41:43.673Z,1.10
2023-03-28T14:44:49.524Z,1.17
2023-03-28T14:47:51.832Z,1.20
2023-03-28T14:50:54.943Z,1.42
2023-03-28T14:53:57.697Z,1.20
2023-03-28T14:57:01.021Z,1.30
2023-03-28T15:00:12.506Z,1.33
2023-03-28T15:03:17.954Z,1.23
2023-03-28T15:06:23.237Z,4.30
2023-03-28T15:09:36.351Z,1.25
2023-03-28T15:13:01.216Z,1.20
2023-03-28T15:16:25.753Z,1.90
2023-03-28T15:19:37.705Z,1.20
2023-03-28T15:22:40.099Z,1.27
2023-03-28T15:25:44.232Z,1.40
2023-03-28T15:28:48.165Z,1.15
2023-03-28T15:31:50.570Z,1.37
2023-03-28T15:35:05.105Z,1.20
2023-03-28T15:38:15.267Z,1.10
2023-03-28T15:41:22.859Z,1.37
2023-03-28T15:44:37.990Z,1.20
2023-03-28T15:47:41.349Z,1.30
2023-03-28T15:50:49.355Z,1.00
2023-03-28T15:53:51.788Z,1.40
2023-03-28T15:56:54.897Z,1.33
2023-03-28T15:59:58.386Z,1.20
2023-03-28T16:03:32.661Z,1.75
2023-03-28T16:06:41.628Z,1.58
2023-03-28T16:09:44.251Z,2.28
2023-03-28T16:12:47.258Z,1.90
2023-03-28T16:15:51.118Z,3.28
2023-03-28T16:18:53.542Z,2.60
2023-03-28T16:21:57.205Z,2.53
2023-03-28T16:25:01.272Z,7.00
2023-03-28T16:28:03.629Z,2.12
2023-03-28T16:31:06.275Z,1.83
2023-03-28T16:34:10.075Z,5.72
2023-03-28T16:37:12.537Z,1.80
2023-03-28T16:40:15.642Z,1.60
2023-03-28T16:43:18.486Z,1.50
2023-03-28T16:46:21.015Z,1.73
2023-03-28T16:49:23.294Z,1.30
2023-03-28T16:52:26.730Z,1.92
2023-03-28T16:55:31.002Z,1.60
2023-03-28T16:58:33.387Z,1.77
2023-03-28T17:01:35.929Z,1.30
2023-03-28T17:04:38.239Z,2.00
2023-03-28T17:07:40.917Z,1.10
2023-03-28T17:10:43.668Z,1.50
2023-03-28T17:13:47.678Z,2.67
2023-03-28T17:16:49.932Z,4.22
2023-03-28T17:19:52.550Z,1.85
2023-03-28T17:22:55.315Z,1.48
2023-03-28T17:25:57.883Z,1.58
2023-03-28T17:29:01.542Z,1.75
2023-03-28T17:32:04.357Z,3.90
2023-03-28T17:35:09.206Z,1.92
2023-03-28T17:38:11.964Z,2.67
2023-03-28T17:41:16.215Z,2.05
2023-03-28T17:44:19.329Z,1.85
2023-03-28T17:47:22.300Z,1.67
2023-03-28T17:50:25.561Z,1.37
2023-03-28T17:53:28.440Z,1.65
2023-03-28T17:56:31.809Z,1.77
2023-03-28T17:59:34.280Z,2.42
2023-03-28T18:02:43.632Z,1.45
2023-03-28T18:05:50.478Z,2.83
2023-03-28T18:08:53.221Z,3.30
2023-03-28T18:11:56.399Z,4.37
2023-03-28T18:15:01.079Z,1.95
2023-03-28T18:18:05.054Z,2.10
2023-03-28T18:21:08.730Z,2.83
2023-03-28T18:24:12.517Z,1.85
2023-03-28T18:27:18.198Z,1.58
2023-03-28T18:30:21.051Z,1.80
2023-03-28T18:33:25.992Z,2.22
2023-03-28T18:36:29.110Z,1.58
2023-03-28T18:39:32.387Z,1.77
2023-03-28T18:42:36.638Z,1.45
2023-03-28T18:45:39.761Z,1.50
2023-03-28T18:48:44.993Z,1.40
2023-03-28T18:51:54.971Z,1.55
2023-03-28T18:55:01.541Z,2.03
2023-03-28T18:58:04.961Z,1.58
2023-03-28T19:01:09.177Z,1.95
2023-03-28T19:04:12.464Z,2.10
2023-03-28T19:07:16.772Z,1.95
2023-03-28T19:10:19.430Z,2.87
2023-03-28T19:13:23.056Z,3.45
2023-03-28T19:16:26.277Z,2.90
2023-03-28T19:19:29.558Z,2.22
2023-03-28T19:22:32.981Z,2.67
2023-03-28T19:25:35.711Z,2.58
2023-03-28T19:28:39.342Z,3.05
2023-03-28T19:31:42.868Z,2.87
2023-03-28T19:34:46.350Z,3.58
2023-03-28T19:37:48.933Z,3.50
2023-03-28T19:40:57.743Z,2.90
2023-03-28T19:44:00.549Z,2.42
2023-03-28T19:47:03.393Z,5.20
2023-03-28T19:50:06.739Z,6.40
2023-03-28T19:53:09.397Z,2.75
2023-03-28T19:56:12.161Z,2.65
2023-03-28T19:59:14.699Z,3.60
2023-03-28T20:02:17.238Z,3.75
2023-03-28T20:05:19.908Z,2.00
2023-03-28T20:08:22.294Z,2.05
2023-03-28T20:11:24.970Z,2.47
2023-03-28T20:14:28.081Z,2.12
2023-03-28T20:17:30.571Z,1.75
2023-03-28T20:20:32.754Z,1.70
2023-03-28T20:23:36.233Z,1.77
2023-03-28T20:26:39.819Z,2.37
2023-03-28T20:29:42.762Z,2.10
2023-03-28T20:32:45.686Z,1.60
2023-03-28T20:35:52.874Z,1.33
2023-03-28T20:38:55.864Z,1.35
2023-03-28T20:42:03.018Z,1.58
2023-03-28T20:45:08.981Z,1.17
2023-03-28T20:48:16.192Z,1.42
2023-03-28T20:51:18.964Z,1.20
2023-03-28T20:54:24.346Z,1.50
2023-03-28T20:57:30.266Z,1.50
2023-03-28T21:00:33.750Z,1.60
2023-03-28T21:03:46.393Z,1.17
2023-03-28T21:06:50.124Z,1.55
2023-03-28T21:09:53.625Z,1.67
2023-03-28T21:12:56.048Z,1.83
2023-03-28T21:15:58.372Z,1.60
2023-03-28T21:19:02.592Z,1.17
2023-03-28T21:22:04.938Z,0.90
2023-03-28T21:25:07.943Z,1.45
2023-03-28T21:28:11.061Z,1.60
2023-03-28T21:31:15.924Z,1.90
2023-03-28T21:34:18.183Z,1.10
2023-03-28T21:37:20.436Z,1.37
2023-03-28T21:40:23.125Z,1.37
2023-03-28T21:43:25.356Z,1.37
2023-03-28T21:46:27.676Z,1.27
2023-03-28T21:49:30.661Z,1.00
2023-03-28T21:52:35.034Z,1.40
2023-03-28T21:55:37.613Z,1.85
2023-03-28T21:58:40.364Z,1.15
2023-03-28T22:01:43.036Z,1.30
2023-03-28T22:04:47.087Z,1.27
2023-03-28T22:07:50.259Z,1.10
2023-03-28T22:10:54.662Z,1.58
2023-03-28T22:14:04.901Z,1.20
2023-03-28T22:17:07.266Z,1.12
2023-03-28T22:20:11.781Z,1.23
2023-03-28T22:23:14.091Z,1.45
2023-03-28T22:26:16.444Z,1.45
2023-03-28T22:29:19.446Z,1.50
2023-03-28T22:32:21.709Z,1.45
2023-03-28T22:35:23.977Z,1.50
2023-03-28T22:38:26.634Z,1.23
2023-03-28T22:41:31.632Z,1.45
2023-03-28T22:44:33.873Z,1.50
2023-03-28T22:47:39.527Z,1.10
2023-03-28T22:50:44.169Z,1.10
2023-03-28T22:53:47.172Z,1.20
2023-03-28T22:56:49.720Z,1.17
2023-03-28T22:59:53.146Z,2.03
2023-03-28T23:02:56.106Z,1.10
2023-03-28T23:06:02.923Z,1.65
2023-03-28T23:09:05.215Z,1.52
2023-03-28T23:12:08.188Z,1.12
2023-03-28T23:15:11.341Z,1.60
2023-03-28T23:18:14.582Z,2.17
2023-03-28T23:21:17.070Z,2.42
2023-03-28T23:24:19.492Z,3.17
2023-03-28T23:27:21.737Z,2.33
2023-03-28T23:30:23.887Z,2.75
2023-03-28T23:33:26.132Z,2.12
2023-03-28T23:36:30.270Z,2.83
2023-03-28T23:39:32.488Z,3.25
2023-03-28T23:42:34.676Z,5.68
2023-03-28T23:45:37.844Z,7.78
2023-03-28T23:48:40.050Z,2.85
2023-03-28T23:51:42.549Z,2.60
2023-03-28T23:54:45.451Z,2.10
2023-03-28T23:57:47.649Z,2.15
